createdAt,value
2022-10-18T00:00:47.318Z,102591.70
2022-10-18T00:01:50.781Z,102599.11
2022-10-18T00:02:53.695Z,102585.59
2022-10-18T00:03:56.527Z,102594.81
2022-10-18T00:04:59.503Z,102593.95
2022-10-18T00:06:03.186Z,102598.65
2022-10-18T00:07:06.148Z,102593.36
2022-10-18T00:08:09.053Z,102597.91
2022-10-18T00:09:12.105Z,102598.03
2022-10-18T00:10:15.545Z,102590.90
2022-10-18T00:11:18.395Z,102596.30
2022-10-18T00:12:21.369Z,102589.21
2022-10-18T00:13:24.655Z,102594.62
2022-10-18T00:14:27.496Z,102594.73
2022-10-18T00:15:30.454Z,102588.47
2022-10-18T00:16:33.406Z,102599.41
2022-10-18T00:17:38.078Z,102591.41
2022-10-18T00:18:41.423Z,102597.83
2022-10-18T00:19:44.578Z,102596.11
2022-10-18T00:20:56.377Z,102592.55
2022-10-18T00:21:59.534Z,102590.82
2022-10-18T00:23:02.542Z,102595.48
2022-10-18T00:24:05.861Z,102590.23
2022-10-18T00:25:09.594Z,102585.81
2022-10-18T00:26:15.989Z,102584.95
2022-10-18T00:27:19.392Z,102583.11
2022-10-18T00:28:22.599Z,102577.82
2022-10-18T00:29:25.715Z,102579.55
2022-10-18T00:30:28.673Z,102584.09
2022-10-18T00:31:34.926Z,102588.52
2022-10-18T00:32:38.830Z,102579.55
2022-10-18T00:33:44.010Z,102576.72
2022-10-18T00:34:47.036Z,102573.03
2022-10-18T00:35:50.228Z,102573.75
2022-10-18T00:36:54.573Z,102579.89
2022-10-18T00:37:57.552Z,102569.08
2022-10-18T00:39:01.682Z,102579.77
2022-10-18T00:40:05.495Z,102580.59
2022-10-18T00:41:11.362Z,102579.62
2022-10-18T00:42:19.499Z,102574.21
2022-10-18T00:43:22.479Z,102574.37
2022-10-18T00:44:28.981Z,102573.50
2022-10-18T00:45:32.118Z,102574.37
2022-10-18T00:46:37.915Z,102566.38
2022-10-18T00:47:42.051Z,102573.50
2022-10-18T00:48:45.268Z,102577.19
2022-10-18T00:49:51.848Z,102563.67
2022-10-18T00:50:54.908Z,102571.91
2022-10-18T00:52:04.600Z,102569.20
2022-10-18T00:53:11.128Z,102571.04
2022-10-18T00:54:16.242Z,102575.73
2022-10-18T00:55:20.016Z,102575.73
2022-10-18T00:56:23.037Z,102574.02
2022-10-18T00:57:26.294Z,102574.14
2022-10-18T00:58:29.323Z,102571.44
2022-10-18T00:59:33.287Z,102572.30
2022-10-18T01:00:38.156Z,102573.16
2022-10-18T01:01:41.312Z,102567.75
2022-10-18T01:02:46.038Z,102574.88
2022-10-18T01:03:50.548Z,102567.62
2022-10-18T01:04:53.536Z,102566.77
2022-10-18T01:05:56.670Z,102563.05
2022-10-18T01:07:03.052Z,102571.91
2022-10-18T01:08:18.446Z,102565.64
2022-10-18T01:09:24.961Z,102564.93
2022-10-18T01:10:37.611Z,102570.33
2022-10-18T01:11:50.029Z,102573.03
2022-10-18T01:13:12.912Z,102573.03
2022-10-18T01:15:52.021Z,102568.41
2022-10-18T01:17:10.311Z,102574.02
2022-10-18T01:18:19.590Z,102571.44
2022-10-18T01:19:34.928Z,102575.98
2022-10-18T01:20:56.466Z,102568.85
2022-10-18T01:22:08.769Z,102570.69
2022-10-18T01:23:31.737Z,102568.85
2022-10-18T01:24:50.401Z,102566.15
2022-10-18T01:26:13.326Z,102566.42
2022-10-18T01:27:25.693Z,102568.14
2022-10-18T01:29:05.750Z,102566.42
2022-10-18T01:30:37.662Z,102567.41
2022-10-18T01:31:47.312Z,102565.68
2022-10-18T01:32:56.930Z,102562.27
2022-10-18T01:34:06.561Z,102565.09
2022-10-18T01:35:13.087Z,102560.55
2022-10-18T01:36:22.792Z,102564.97
2022-10-18T01:37:27.802Z,102560.39
2022-10-18T01:38:33.542Z,102562.98
2022-10-18T01:39:39.682Z,102560.28
2022-10-18T01:40:45.795Z,102562.00
2022-10-18T01:41:51.412Z,102562.86
2022-10-18T01:42:54.938Z,102562.86
2022-10-18T01:44:00.295Z,102558.20
2022-10-18T01:45:07.350Z,102557.92
2022-10-18T01:46:13.933Z,102553.10
2022-10-18T01:47:17.968Z,102555.69
2022-10-18T01:48:21.355Z,102559.98
2022-10-18T01:49:25.039Z,102543.77
2022-10-18T01:50:33.661Z,102551.73
2022-10-18T01:51:36.829Z,102549.88
2022-10-18T01:52:50.118Z,102549.88
2022-10-18T01:53:53.431Z,102548.16
2022-10-18T01:54:58.355Z,102544.75
2022-10-18T01:56:20.165Z,102541.31
2022-10-18T01:57:30.098Z,102546.72
2022-10-18T01:58:48.557Z,102548.83
2022-10-18T01:59:58.266Z,102550.67
2022-10-18T02:02:20.329Z,102546.38
2022-10-18T02:03:26.077Z,102553.62
2022-10-18T02:04:44.722Z,102543.82
2022-10-18T02:06:03.624Z,102552.79
2022-10-18T02:07:10.266Z,102551.93
2022-10-18T02:08:32.077Z,102551.06
2022-10-18T02:09:42.172Z,102552.05
2022-10-18T02:10:48.705Z,102541.23
2022-10-18T02:11:54.291Z,102538.54
2022-10-18T02:12:58.936Z,102536.81
2022-10-18T02:14:08.326Z,102538.54
2022-10-18T02:15:14.803Z,102537.67
2022-10-18T02:16:24.109Z,102543.08
2022-10-18T02:17:29.591Z,102537.67
2022-10-18T02:18:36.176Z,102540.38
2022-10-18T02:19:45.667Z,102535.83
2022-10-18T02:20:49.409Z,102531.41
2022-10-18T02:21:54.512Z,102528.83
2022-10-18T02:23:00.305Z,102536.94
2022-10-18T02:24:05.069Z,102531.53
2022-10-18T02:25:11.782Z,102531.53
2022-10-18T02:26:15.744Z,102536.08
2022-10-18T02:27:18.892Z,102526.40
2022-10-18T02:28:22.266Z,102526.28
2022-10-18T02:29:25.430Z,102528.13
2022-10-18T02:30:34.870Z,102529.84
2022-10-18T02:31:41.431Z,102529.84
2022-10-18T02:33:00.162Z,102534.39
2022-10-18T02:34:18.153Z,102521.86
2022-10-18T02:35:27.520Z,102520.25
2022-10-18T02:36:40.161Z,102520.25
2022-10-18T02:37:44.747Z,102533.77
2022-10-18T02:38:49.893Z,102533.06
2022-10-18T02:39:52.758Z,102534.90
2022-10-18T02:40:55.681Z,102532.20
2022-10-18T02:41:59.183Z,102536.73
2022-10-18T02:43:04.026Z,102536.73
2022-10-18T02:44:06.919Z,102532.31
2022-10-18T02:45:11.247Z,102534.16
2022-10-18T02:46:14.548Z,102527.89
2022-10-18T02:47:17.904Z,102534.16
2022-10-18T02:48:20.882Z,102530.48
2022-10-18T02:49:23.800Z,102522.38
2022-10-18T02:50:26.742Z,102517.09
2022-10-18T02:51:29.753Z,102516.11
2022-10-18T02:52:32.782Z,102514.39
2022-10-18T02:53:36.013Z,102525.34
2022-10-18T02:54:39.094Z,102514.66
2022-10-18T02:55:42.093Z,102516.50
2022-10-18T02:56:45.062Z,102516.50
2022-10-18T02:57:48.028Z,102519.32
2022-10-18T02:58:51.004Z,102516.62
2022-10-18T02:59:54.296Z,102510.36
2022-10-18T03:00:57.354Z,102513.05
2022-10-18T03:02:00.338Z,102511.33
2022-10-18T03:03:03.323Z,102512.34
2022-10-18T03:04:06.250Z,102507.80
2022-10-18T03:05:09.236Z,102500.69
2022-10-18T03:06:13.322Z,102499.82
2022-10-18T03:07:16.299Z,102503.50
2022-10-18T03:08:19.667Z,102505.34
2022-10-18T03:09:22.550Z,102510.75
2022-10-18T03:10:25.533Z,102513.45
2022-10-18T03:11:28.488Z,102506.20
2022-10-18T03:12:31.505Z,102509.89
2022-10-18T03:13:34.594Z,102516.16
2022-10-18T03:14:37.563Z,102512.59
2022-10-18T03:15:40.730Z,102515.29
2022-10-18T03:16:43.697Z,102513.45
2022-10-18T03:17:46.859Z,102513.45
2022-10-18T03:18:49.923Z,102508.05
2022-10-18T03:19:52.914Z,102510.87
2022-10-18T03:20:55.967Z,102500.06
2022-10-18T03:21:58.945Z,102508.16
2022-10-18T03:23:02.854Z,102514.58
2022-10-18T03:24:06.550Z,102508.16
2022-10-18T03:25:09.473Z,102506.48
2022-10-18T03:26:12.559Z,102507.30
2022-10-18T03:27:15.584Z,102503.63
2022-10-18T03:28:18.837Z,102504.48
2022-10-18T03:29:21.846Z,102517.01
2022-10-18T03:30:24.804Z,102505.34
2022-10-18T03:31:27.897Z,102507.92
2022-10-18T03:32:31.376Z,102506.09
2022-10-18T03:33:34.546Z,102501.55
2022-10-18T03:34:37.491Z,102493.28
2022-10-18T03:35:40.462Z,102500.53
2022-10-18T03:36:43.690Z,102498.69
2022-10-18T03:37:46.794Z,102495.13
2022-10-18T03:38:49.720Z,102499.70
2022-10-18T03:39:52.820Z,102500.69
2022-10-18T03:40:55.899Z,102495.28
2022-10-18T03:41:59.122Z,102498.84
2022-10-18T03:43:02.174Z,102497.13
2022-10-18T03:44:05.184Z,102501.66
2022-10-18T03:45:08.766Z,102507.06
2022-10-18T03:46:12.171Z,102511.61
2022-10-18T03:47:15.593Z,102516.03
2022-10-18T03:48:18.749Z,102505.34
2022-10-18T03:49:21.906Z,102518.85
2022-10-18T03:50:24.911Z,102515.29
2022-10-18T03:51:27.880Z,102514.43
2022-10-18T03:52:31.140Z,102514.43
2022-10-18T03:53:34.347Z,102518.97
2022-10-18T03:54:37.536Z,102498.22
2022-10-18T03:55:40.713Z,102497.36
2022-10-18T03:56:43.981Z,102496.38
2022-10-18T03:57:47.194Z,102498.10
2022-10-18T03:58:50.315Z,102487.17
2022-10-18T03:59:53.290Z,102488.89
2022-10-18T04:00:56.342Z,102499.55
2022-10-18T04:01:59.494Z,102498.69
2022-10-18T04:03:02.489Z,102501.39
2022-10-18T04:04:05.342Z,102507.80
2022-10-18T04:05:09.052Z,102506.95
2022-10-18T04:06:12.713Z,102508.78
2022-10-18T04:07:15.642Z,102502.64
2022-10-18T04:08:19.008Z,102511.73
2022-10-18T04:09:22.012Z,102509.89
2022-10-18T04:10:24.870Z,102502.64
2022-10-18T04:11:28.016Z,102502.64
2022-10-18T04:12:31.177Z,102498.96
2022-10-18T04:13:34.831Z,102513.33
2022-10-18T04:14:37.795Z,102507.92
2022-10-18T04:15:40.767Z,102507.92
2022-10-18T04:16:43.831Z,102519.44
2022-10-18T04:17:47.127Z,102507.66
2022-10-18T04:18:50.135Z,102503.97
2022-10-18T04:19:53.078Z,102505.58
2022-10-18T04:20:56.163Z,102514.39
2022-10-18T04:21:59.111Z,102512.42
2022-10-18T04:23:02.041Z,102511.29
2022-10-18T04:24:05.655Z,102513.02
2022-10-18T04:25:08.795Z,102504.78
2022-10-18T04:26:12.007Z,102506.23
2022-10-18T04:27:14.970Z,102508.81
2022-10-18T04:28:18.269Z,102501.45
2022-10-18T04:29:21.374Z,102511.12
2022-10-18T04:30:24.361Z,102515.42
2022-10-18T04:31:27.468Z,102504.45
2022-10-18T04:32:30.667Z,102508.75
2022-10-18T04:33:33.818Z,102498.69
2022-10-18T04:34:36.947Z,102495.83
2022-10-18T04:35:40.072Z,102496.56
2022-10-18T04:36:43.340Z,102496.44
2022-10-18T04:37:46.559Z,102492.72
2022-10-18T04:38:49.599Z,102490.87
2022-10-18T04:39:53.722Z,102496.16
2022-10-18T04:40:57.249Z,102492.47
2022-10-18T04:42:00.229Z,102499.45
2022-10-18T04:43:03.296Z,102494.78
2022-10-18T04:44:06.404Z,102499.08
2022-10-18T04:45:10.157Z,102491.83
2022-10-18T04:46:13.616Z,102487.13
2022-10-18T04:47:16.752Z,102487.86
2022-10-18T04:48:19.950Z,102487.73
2022-10-18T04:49:22.905Z,102488.56
2022-10-18T04:50:25.979Z,102490.28
2022-10-18T04:51:29.907Z,102490.28
2022-10-18T04:52:32.989Z,102478.61
2022-10-18T04:53:36.122Z,102479.62
2022-10-18T04:54:39.336Z,102480.45
2022-10-18T04:55:49.880Z,102488.56
2022-10-18T04:56:52.893Z,102487.58
2022-10-18T04:57:55.977Z,102484.02
2022-10-18T04:58:59.417Z,102478.48
2022-10-18T05:00:03.240Z,102477.50
2022-10-18T05:01:06.958Z,102483.77
2022-10-18T05:02:10.045Z,102486.34
2022-10-18T05:03:13.752Z,102482.62
2022-10-18T05:04:16.734Z,102477.22
2022-10-18T05:05:19.711Z,102480.78
2022-10-18T05:06:23.083Z,102480.66
2022-10-18T05:07:26.170Z,102483.36
2022-10-18T05:08:29.817Z,102486.92
2022-10-18T05:09:33.396Z,102486.06
2022-10-18T05:10:36.550Z,102495.90
2022-10-18T05:11:39.539Z,102496.76
2022-10-18T05:12:43.362Z,102492.05
2022-10-18T05:13:48.660Z,102492.79
2022-10-18T05:14:50.998Z,102500.77
2022-10-18T05:15:53.856Z,102501.48
2022-10-18T05:16:56.835Z,102499.51
2022-10-18T05:17:59.778Z,102503.77
2022-10-18T05:19:05.099Z,102498.36
2022-10-18T05:20:08.664Z,102500.09
2022-10-18T05:21:11.986Z,102498.23
2022-10-18T05:22:14.982Z,102505.25
2022-10-18T05:23:18.037Z,102499.84
2022-10-18T05:24:23.024Z,102504.27
2022-10-18T05:25:25.930Z,102499.68
2022-10-18T05:26:28.899Z,102509.52
2022-10-18T05:27:31.747Z,102506.55
2022-10-18T05:28:39.508Z,102500.98
2022-10-18T05:29:39.780Z,102507.13
2022-10-18T05:30:44.458Z,102507.01
2022-10-18T05:31:48.803Z,102512.13
2022-10-18T05:32:51.809Z,102506.59
2022-10-18T05:33:54.758Z,102506.47
2022-10-18T05:34:57.744Z,102503.77
2022-10-18T05:36:00.947Z,102508.19
2022-10-18T05:37:03.916Z,102505.33
2022-10-18T05:38:06.759Z,102497.08
2022-10-18T05:39:09.764Z,102505.77
2022-10-18T05:40:13.532Z,102502.94
2022-10-18T05:41:16.504Z,102503.52
2022-10-18T05:42:19.425Z,102504.12
2022-10-18T05:43:22.403Z,102509.98
2022-10-18T05:44:25.426Z,102507.72
2022-10-18T05:45:28.404Z,102508.28
2022-10-18T05:46:31.874Z,102509.62
2022-10-18T05:48:37.751Z,102508.66
2022-10-18T05:49:40.956Z,102508.96
2022-10-18T05:50:45.592Z,102512.84
2022-10-18T05:51:48.787Z,102515.85
2022-10-18T05:52:53.804Z,102509.02
2022-10-18T05:53:56.877Z,102518.44
2022-10-18T05:54:59.999Z,102515.02
2022-10-18T05:56:02.973Z,102516.30
2022-10-18T05:57:06.049Z,102517.59
2022-10-18T05:58:09.129Z,102515.31
2022-10-18T05:59:12.665Z,102512.03
2022-10-18T06:00:19.753Z,102512.33
2022-10-18T06:01:23.032Z,102507.33
2022-10-18T06:02:26.070Z,102504.91
2022-10-18T06:03:30.231Z,102501.77
2022-10-18T06:04:34.244Z,102506.75
2022-10-18T06:05:37.229Z,102502.61
2022-10-18T06:06:40.389Z,102501.17
2022-10-18T06:07:43.339Z,102492.45
2022-10-18T06:08:49.062Z,102490.16
2022-10-18T06:09:52.074Z,102489.58
2022-10-18T06:10:55.273Z,102487.28
2022-10-18T06:11:58.272Z,102487.00
2022-10-18T06:13:01.248Z,102484.84
2022-10-18T06:14:04.709Z,102485.39
2022-10-18T06:15:08.041Z,102477.25
2022-10-18T06:16:12.748Z,102482.53
2022-10-18T06:17:15.796Z,102480.69
2022-10-18T06:18:18.806Z,102481.54
2022-10-18T06:19:24.191Z,102472.41
2022-10-18T06:20:27.303Z,102481.41
2022-10-18T06:21:30.371Z,102486.66
2022-10-18T06:22:41.645Z,102485.80
2022-10-18T06:23:50.640Z,102476.66
2022-10-18T06:24:57.144Z,102485.52
2022-10-18T06:26:02.558Z,102478.38
2022-10-18T06:27:07.495Z,102482.81
2022-10-18T06:28:12.195Z,102485.38
2022-10-18T06:29:15.539Z,102480.09
2022-10-18T06:30:18.887Z,102479.09
2022-10-18T06:31:21.907Z,102481.95
2022-10-18T06:32:24.994Z,102484.66
2022-10-18T06:33:29.754Z,102473.81
2022-10-18T06:34:33.260Z,102477.37
2022-10-18T06:35:36.240Z,102476.52
2022-10-18T06:36:39.230Z,102469.24
2022-10-18T07:26:42.026Z,102423.70
2022-10-18T07:27:45.248Z,102416.87
2022-10-18T07:28:51.395Z,102418.12
2022-10-18T07:29:54.435Z,102416.66
2022-10-18T07:31:00.278Z,102417.91
2022-10-18T07:32:02.565Z,102415.58
2022-10-18T07:33:05.575Z,102407.82
2022-10-18T07:34:11.717Z,102408.20
2022-10-18T07:35:14.782Z,102407.59
2022-10-18T07:36:18.773Z,102406.15
2022-10-18T07:37:24.414Z,102404.81
2022-10-18T07:38:26.621Z,102408.78
2022-10-18T07:39:29.622Z,102408.30
2022-10-18T07:40:32.720Z,102395.09
2022-10-18T07:41:36.033Z,102396.51
2022-10-18T07:42:39.045Z,102385.01
2022-10-18T07:43:45.324Z,102383.52
2022-10-18T07:44:48.321Z,102381.17
2022-10-18T07:45:52.579Z,102375.97
2022-10-18T07:46:55.598Z,102372.76
2022-10-18T07:47:58.708Z,102376.70
2022-10-18T07:49:01.791Z,102378.09
2022-10-18T07:50:05.658Z,102371.30
2022-10-18T07:51:08.978Z,102370.81
2022-10-18T07:52:11.991Z,102378.52
2022-10-18T07:53:15.036Z,102375.31
2022-10-18T07:54:18.174Z,102375.67
2022-10-18T07:55:21.190Z,102367.02
2022-10-18T07:56:24.486Z,102368.39
2022-10-18T07:57:27.561Z,102369.80
2022-10-18T07:58:33.027Z,102371.84
2022-10-18T07:59:36.403Z,102367.80
2022-10-18T08:00:39.975Z,102365.44
2022-10-18T08:01:43.034Z,102356.77
2022-10-18T08:02:46.245Z,102361.72
2022-10-18T08:03:49.653Z,102365.81
2022-10-18T08:04:52.654Z,102348.15
2022-10-18T08:05:55.633Z,102355.81
2022-10-18T08:06:58.761Z,102346.28
2022-10-18T08:08:04.337Z,102352.24
2022-10-18T08:09:06.987Z,102354.49
2022-10-18T08:10:10.693Z,102350.25
2022-10-18T08:11:16.782Z,102341.57
2022-10-18T08:12:19.911Z,102336.62
2022-10-18T08:13:22.914Z,102340.72
2022-10-18T08:14:25.991Z,102333.94
2022-10-18T08:15:28.910Z,102334.28
2022-10-18T08:17:35.916Z,102330.53
2022-10-18T08:18:39.360Z,102320.98
2022-10-18T08:19:52.849Z,102324.27
2022-10-18T08:20:47.175Z,102325.47
2022-10-18T08:21:50.287Z,102322.23
2022-10-18T08:22:57.709Z,102316.41
2022-10-18T08:23:58.376Z,102316.09
2022-10-18T08:25:01.348Z,102322.05
2022-10-18T08:26:06.829Z,102320.67
2022-10-18T08:27:09.888Z,102316.77
2022-10-18T08:28:16.947Z,102313.52
2022-10-18T08:29:25.841Z,102313.19
2022-10-18T08:30:25.078Z,102309.08
2022-10-18T08:31:28.076Z,102311.45
2022-10-18T08:32:31.816Z,102310.92
2022-10-18T08:33:35.713Z,102307.70
2022-10-18T08:35:41.854Z,102308.89
2022-10-18T08:36:44.918Z,102304.94
2022-10-18T08:37:48.002Z,102297.28
2022-10-18T08:38:51.297Z,102299.64
2022-10-18T08:39:54.409Z,102298.27
2022-10-18T08:42:21.373Z,102293.44
2022-10-18T08:43:43.105Z,102293.28
2022-10-18T08:44:48.555Z,102291.89
2022-10-18T08:45:54.141Z,102288.66
2022-10-18T08:47:22.060Z,102290.00
2022-10-18T08:48:37.605Z,102290.32
2022-10-18T08:49:47.548Z,102290.47
2022-10-18T08:50:52.801Z,102292.29
2022-10-18T08:51:57.258Z,102290.73
2022-10-18T08:53:06.969Z,102291.72
2022-10-18T08:54:22.721Z,102293.74
2022-10-18T08:55:41.323Z,102288.42
2022-10-18T08:56:47.887Z,102288.55
2022-10-18T08:57:51.489Z,102280.45
2022-10-18T08:58:54.632Z,102282.50
2022-10-18T08:59:57.702Z,102282.81
2022-10-18T09:01:37.772Z,102276.62
2022-10-18T09:03:01.157Z,102283.24
2022-10-18T09:04:25.487Z,102277.73
2022-10-18T09:05:46.786Z,102268.11
2022-10-18T09:07:25.076Z,102265.68
2022-10-18T09:08:34.613Z,102268.70
2022-10-18T09:09:57.845Z,102272.77
2022-10-18T09:11:22.610Z,102269.68
2022-10-18T09:13:02.786Z,102278.18
2022-10-18T09:14:21.383Z,102271.50
2022-10-18T09:15:53.823Z,102276.41
2022-10-18T09:17:15.873Z,102270.37
2022-10-18T09:18:35.553Z,102261.61
2022-10-18T09:19:55.324Z,102260.19
2022-10-18T09:21:00.160Z,102252.27
2022-10-18T09:22:09.773Z,102253.63
2022-10-18T09:23:40.052Z,102258.70
2022-10-18T09:24:58.540Z,102251.81
2022-10-18T09:26:07.742Z,102252.77
2022-10-18T09:27:16.763Z,102259.56
2022-10-18T09:28:23.423Z,102250.98
2022-10-18T09:29:48.412Z,102255.04
2022-10-18T09:31:20.821Z,102248.53
2022-10-18T09:32:30.542Z,102253.44
2022-10-18T09:33:44.342Z,102245.50
2022-10-18T09:36:27.000Z,102243.22
2022-10-18T09:37:33.283Z,102245.20
2022-10-18T09:38:49.012Z,102246.72
2022-10-18T09:39:55.661Z,102231.78
2022-10-18T09:41:02.234Z,102232.45
2022-10-18T09:42:28.292Z,102234.86
2022-10-18T09:43:52.904Z,102232.76
2022-10-18T09:45:02.411Z,102218.70
2022-10-18T09:46:06.779Z,102216.59
2022-10-18T09:47:21.986Z,102213.48
2022-10-18T09:48:31.664Z,102213.27
2022-10-18T09:49:38.219Z,102209.31
2022-10-18T09:50:50.648Z,102212.50
2022-10-18T09:51:54.006Z,102203.92
2022-10-18T09:53:03.634Z,102202.88
2022-10-18T09:54:10.200Z,102200.78
2022-10-18T09:55:16.972Z,102197.67
2022-10-18T09:56:41.040Z,102188.20
2022-10-18T09:57:50.208Z,102187.83
2022-10-18T09:58:53.229Z,102189.13
2022-10-18T09:59:57.780Z,102180.72
2022-10-18T10:01:01.203Z,102177.57
2022-10-18T10:02:05.489Z,102181.83
2022-10-18T10:03:15.292Z,102172.34
2022-10-18T10:04:18.420Z,102168.38
2022-10-18T10:05:21.481Z,102172.61
2022-10-18T10:06:29.912Z,102165.89
2022-10-18T10:07:39.600Z,102161.05
2022-10-18T10:08:46.179Z,102160.86
2022-10-18T10:09:55.975Z,102157.93
2022-10-18T10:10:59.212Z,102155.85
2022-10-18T10:12:02.594Z,102155.44
2022-10-18T10:13:09.307Z,102152.29
2022-10-18T10:15:28.184Z,102136.13
2022-10-18T10:16:30.812Z,102148.20
2022-10-18T10:17:34.580Z,102146.73
2022-10-18T10:18:39.822Z,102144.25
2022-10-18T10:20:07.051Z,102144.69
2022-10-18T10:21:15.395Z,102150.64
2022-10-18T10:22:21.964Z,102143.89
2022-10-18T10:23:31.501Z,102149.81
2022-10-18T10:24:50.046Z,102140.34
2022-10-18T10:25:59.579Z,102145.64
2022-10-18T10:27:05.768Z,102138.89
2022-10-18T10:28:18.088Z,102146.08
2022-10-18T10:29:44.787Z,102134.06
2022-10-18T10:30:46.292Z,102138.51
2022-10-18T10:31:52.764Z,102134.72
2022-10-18T10:32:56.913Z,102133.88
2022-10-18T10:34:15.530Z,102130.05
2022-10-18T10:35:35.485Z,102132.61
2022-10-18T10:36:30.341Z,102128.82
2022-10-18T10:37:36.403Z,102132.84
2022-10-18T10:38:39.488Z,102129.91
2022-10-18T10:39:45.015Z,102128.02
2022-10-18T10:40:49.821Z,102122.34
2022-10-18T10:41:55.482Z,102121.26
2022-10-18T10:43:18.102Z,102122.95
2022-10-18T10:44:22.172Z,102125.51
2022-10-18T10:45:28.290Z,102114.15
2022-10-18T10:46:36.274Z,102113.11
2022-10-18T10:47:39.677Z,102111.87
2022-10-18T10:48:49.016Z,102117.16
2022-10-18T10:49:53.788Z,102112.10
2022-10-18T10:51:00.557Z,102105.34
2022-10-18T10:52:08.730Z,102104.10
2022-10-18T10:53:29.039Z,102108.32
2022-10-18T10:54:35.777Z,102097.99
2022-10-18T10:55:38.912Z,102097.80
2022-10-18T10:57:00.363Z,102100.34
2022-10-18T10:58:03.547Z,102103.09
2022-10-18T10:59:21.517Z,102107.73
2022-10-18T11:00:44.706Z,102105.84
2022-10-18T11:01:49.725Z,102094.63
2022-10-18T11:03:05.954Z,102093.58
2022-10-18T11:04:04.633Z,102089.98
2022-10-18T11:05:23.399Z,102084.50
2022-10-18T11:06:45.082Z,102080.70
2022-10-18T11:07:50.833Z,102084.30
2022-10-18T11:08:56.936Z,102080.51
2022-10-18T11:10:06.122Z,102074.80
2022-10-18T11:11:22.156Z,102076.48
2022-10-18T11:12:51.421Z,102071.85
2022-10-18T11:14:24.686Z,102070.80
2022-10-18T11:15:21.569Z,102067.86
2022-10-18T11:16:37.292Z,102067.02
2022-10-18T11:17:46.794Z,102067.86
2022-10-18T11:18:52.584Z,102065.73
2022-10-18T11:20:23.516Z,102062.79
2022-10-18T11:21:30.368Z,102062.59
2022-10-18T11:22:37.862Z,102061.55
2022-10-18T11:23:43.019Z,102052.23
2022-10-18T11:24:46.579Z,102051.84
2022-10-18T11:26:05.100Z,102055.43
2022-10-18T11:27:28.375Z,102056.05
2022-10-18T11:28:38.176Z,102041.72
2022-10-18T11:30:16.559Z,102043.39
2022-10-18T11:31:52.057Z,102052.48
2022-10-18T11:33:20.156Z,102038.34
2022-10-18T11:34:56.121Z,102041.09
2022-10-18T11:36:09.292Z,102042.14
2022-10-18T11:37:46.626Z,102050.58
2022-10-18T11:38:56.295Z,102041.30
2022-10-18T11:40:17.841Z,102044.04
2022-10-18T11:41:27.267Z,102037.30
2022-10-18T11:43:07.416Z,102036.87
2022-10-18T11:44:29.245Z,102032.03
2022-10-18T11:45:55.435Z,102029.89
2022-10-18T11:47:11.285Z,102035.19
2022-10-18T11:48:27.138Z,102028.00
2022-10-18T11:49:45.867Z,102034.14
2022-10-18T11:50:58.914Z,102026.75
2022-10-18T11:52:11.092Z,102025.90
2022-10-18T11:53:51.924Z,102019.36
2022-10-18T11:55:00.845Z,102028.65
2022-10-18T11:56:16.614Z,102014.71
2022-10-18T11:57:44.535Z,102009.22
2022-10-18T11:59:10.800Z,102013.63
2022-10-18T12:00:30.608Z,102007.28
2022-10-18T12:01:43.553Z,101999.89
2022-10-18T12:03:02.363Z,101999.89
2022-10-18T12:04:20.989Z,102002.44
2022-10-18T12:05:25.266Z,102004.14
2022-10-18T12:06:32.185Z,101999.91
2022-10-18T12:07:41.654Z,101999.91
2022-10-18T12:08:50.979Z,102000.35
2022-10-18T12:09:55.647Z,102007.52
2022-10-18T12:11:06.223Z,102008.36
2022-10-18T12:12:19.500Z,102002.66
2022-10-18T12:13:29.036Z,102003.31
2022-10-18T12:14:41.559Z,101998.66
2022-10-18T12:15:45.180Z,102004.16
2022-10-18T12:16:52.324Z,101997.58
2022-10-18T12:17:58.244Z,102001.17
2022-10-18T12:19:04.633Z,102007.52
2022-10-18T12:20:27.506Z,101997.38
2022-10-18T12:21:34.009Z,101997.18
2022-10-18T12:22:52.786Z,101990.63
2022-10-18T12:24:05.241Z,101990.63
2022-10-18T12:25:15.162Z,101985.14
2022-10-18T12:26:19.079Z,101987.03
2022-10-18T12:27:31.454Z,101982.39
2022-10-18T12:28:38.180Z,101992.30
2022-10-18T12:29:51.195Z,101985.75
2022-10-18T12:31:03.800Z,101990.19
2022-10-18T12:32:10.443Z,101981.75
2022-10-18T12:33:27.867Z,101986.19
2022-10-18T12:34:31.122Z,101984.50
2022-10-18T12:35:37.758Z,101977.09
2022-10-18T12:36:44.458Z,101979.61
2022-10-18T12:38:11.942Z,101976.66
2022-10-18T12:40:47.615Z,101978.36
2022-10-18T12:41:54.093Z,101977.30
2022-10-18T12:42:57.443Z,101974.76
2022-10-18T12:44:07.106Z,101970.95
2022-10-18T12:45:22.201Z,101970.11
2022-10-18T12:46:28.859Z,101972.22
2022-10-18T12:47:32.767Z,101969.70
2022-10-18T12:48:48.436Z,101968.63
2022-10-18T12:50:01.172Z,101969.47
2022-10-18T12:51:16.676Z,101968.63
2022-10-18T12:52:23.237Z,101971.16
2022-10-18T12:53:28.191Z,101963.77
2022-10-18T12:54:34.522Z,101963.56
2022-10-18T12:55:40.572Z,101958.06
2022-10-18T12:56:46.126Z,101957.22
2022-10-18T12:57:55.794Z,101954.47
2022-10-18T12:59:17.629Z,101954.47
2022-10-18T13:00:33.407Z,101954.67
2022-10-18T13:01:55.365Z,101953.62
2022-10-18T13:03:19.083Z,101957.42
2022-10-18T13:04:32.037Z,101959.33
2022-10-18T13:05:55.291Z,101946.63
2022-10-18T13:07:02.703Z,101951.92
2022-10-18T13:09:45.658Z,101947.68
2022-10-18T13:10:52.265Z,101941.14
2022-10-18T13:12:10.751Z,101943.89
2022-10-18T13:15:05.646Z,101943.23
2022-10-18T13:16:03.633Z,101937.58
2022-10-18T13:17:31.906Z,101939.67
2022-10-18T13:18:44.642Z,101933.77
2022-10-18T13:20:27.423Z,101929.53
2022-10-18T13:21:46.585Z,101939.03
2022-10-18T13:22:59.224Z,101936.52
2022-10-18T13:24:37.540Z,101930.17
2022-10-18T13:25:56.118Z,101928.69
2022-10-18T13:28:37.016Z,101922.98
2022-10-18T13:30:18.523Z,101925.73
2022-10-18T13:31:31.148Z,101918.77
2022-10-18T13:32:57.611Z,101920.23
2022-10-18T13:34:30.122Z,101917.72
2022-10-18T13:35:57.471Z,101913.28
2022-10-18T13:37:06.120Z,101908.84
2022-10-18T13:38:47.565Z,101909.88
2022-10-18T13:39:52.825Z,101914.53
2022-10-18T13:41:08.186Z,101905.68
2022-10-18T13:42:17.830Z,101897.64
2022-10-18T13:43:41.309Z,101902.28
2022-10-18T13:44:45.933Z,101902.28
2022-10-18T13:45:55.817Z,101890.66
2022-10-18T13:47:02.390Z,101891.73
2022-10-18T13:48:31.565Z,101896.38
2022-10-18T13:49:50.361Z,101890.89
2022-10-18T13:50:57.105Z,101883.91
2022-10-18T13:52:12.552Z,101890.45
2022-10-18T13:53:24.691Z,101887.09
2022-10-18T13:54:47.871Z,101891.94
2022-10-18T13:56:11.163Z,101883.90
2022-10-18T13:57:40.223Z,101878.00
2022-10-18T13:59:13.764Z,101878.64
2022-10-18T14:00:19.392Z,101879.04
2022-10-18T14:01:41.709Z,101868.49
2022-10-18T14:03:01.739Z,101874.39